Time;durP1;ratioP1;P1;durP2;ratioP2;P2;SDS_P1;SDS_P2;PMS_P1;PMS_P2;Temp;Humidity;BMP_temperature;BMP_pressure;BME280_temperature;BME280_humidity;BME280_pressure;Samples;Min_cycle;Max_cycle;Signal;HPM_P1;HPM_P2
2023/06/04 00:02:17;;;;;;;7.13;3.67;;;10.70;99.90;;;;;;4976116;28;95239;-37
2023/06/04 00:04:43;;;;;;;4.90;3.58;;;10.70;99.90;;;;;;4976983;28;94167;-37
2023/06/04 00:07:08;;;;;;;4.10;3.80;;;10.70;99.90;;;;;;4977370;28;94266;-32
2023/06/04 00:09:34;;;;;;;3.50;3.17;;;10.60;99.90;;;;;;4976941;28;93509;-33
2023/06/04 00:12:00;;;;;;;5.10;3.95;;;10.70;99.90;;;;;;4977238;28;94579;-38
2023/06/04 00:14:26;;;;;;;5.25;4.25;;;10.60;99.90;;;;;;4976813;28;94499;-36
2023/06/04 00:16:51;;;;;;;4.18;3.03;;;10.60;99.90;;;;;;4977197;28;94307;-35
2023/06/04 00:19:17;;;;;;;4.35;3.33;;;10.50;99.90;;;;;;4977638;28;92471;-32
2023/06/04 00:21:42;;;;;;;5.80;4.53;;;10.40;99.90;;;;;;4976345;28;94721;-36
2023/06/04 00:24:08;;;;;;;5.07;3.78;;;10.40;99.90;;;;;;4976524;28;94640;-39
2023/06/04 00:26:34;;;;;;;5.72;4.78;;;10.50;99.90;;;;;;4976553;28;94388;-39
2023/06/04 00:29:01;;;;;;;6.07;3.92;;;10.50;99.90;;;;;;4976545;28;93511;-35
2023/06/04 00:31:26;;;;;;;9.70;4.53;;;10.50;99.90;;;;;;4976673;28;94968;-32
2023/06/04 00:33:52;;;;;;;7.88;4.00;;;10.40;99.90;;;;;;4976864;28;94423;-36
2023/06/04 00:36:17;;;;;;;7.05;4.43;;;10.40;99.90;;;;;;4976649;28;93085;-34
2023/06/04 00:38:43;;;;;;;7.60;4.57;;;10.30;99.90;;;;;;4976833;28;93421;-36
2023/06/04 00:41:09;;;;;;;5.10;4.60;;;10.30;99.90;;;;;;4977016;28;94026;-34
2023/06/04 00:43:35;;;;;;;8.52;4.32;;;10.30;99.90;;;;;;4976749;28;96113;-35
2023/06/04 00:46:03;;;;;;;8.43;5.03;;;10.30;99.90;;;;;;4958598;28;94425;-34
2023/06/04 00:48:30;;;;;;;15.48;5.97;;;10.30;99.90;;;;;;4976535;28;93109;-34
2023/06/04 00:50:56;;;;;;;5.75;5.18;;;10.30;99.90;;;;;;4959069;28;95942;-33
2023/06/04 00:53:24;;;;;;;4.93;4.00;;;10.20;99.90;;;;;;4975809;28;95431;-36
2023/06/04 00:55:50;;;;;;;6.75;4.95;;;10.20;99.90;;;;;;4976742;28;93347;-37
2023/06/04 00:58:16;;;;;;;8.95;4.93;;;10.30;99.90;;;;;;4976438;28;94567;-35
2023/06/04 01:00:44;;;;;;;6.10;3.75;;;10.30;99.90;;;;;;4975836;28;94761;-33
2023/06/04 01:03:24;;;;;;;7.78;4.65;;;10.10;99.90;;;;;;4976182;28;94579;-35
2023/06/04 01:06:04;;;;;;;4.28;3.67;;;10.10;99.90;;;;;;4976941;28;93345;-38
2023/06/04 01:08:31;;;;;;;8.90;5.60;;;10.10;99.90;;;;;;4976245;28;93716;-34
2023/06/04 01:10:58;;;;;;;4.63;3.97;;;10.00;99.90;;;;;;4975765;28;94817;-35
2023/06/04 01:13:24;;;;;;;5.55;4.05;;;10.00;99.90;;;;;;4976571;28;94814;-36
2023/06/04 01:15:50;;;;;;;7.00;4.95;;;10.10;99.90;;;;;;4976588;28;94369;-33
2023/06/04 01:18:27;;;;;;;7.60;5.22;;;10.00;99.90;;;;;;4976294;28;94436;-35
2023/06/04 01:20:59;;;;;;;5.40;4.60;;;10.00;99.90;;;;;;4976021;28;94562;-34
2023/06/04 01:23:46;;;;;;;5.68;4.28;;;10.00;99.90;;;;;;4975509;28;94676;-36
2023/06/04 01:26:12;;;;;;;5.95;3.63;;;10.00;99.90;;;;;;4976473;28;92737;-33
2023/06/04 01:28:38;;;;;;;8.55;3.90;;;9.90;99.90;;;;;;4976486;28;94100;-36
2023/06/04 01:31:08;;;;;;;9.90;4.55;;;9.90;99.90;;;;;;4975966;28;94685;-36
2023/06/04 01:33:34;;;;;;;8.52;4.15;;;9.80;99.90;;;;;;4975942;28;95573;-33
2023/06/04 01:36:00;;;;;;;7.30;4.57;;;9.80;99.90;;;;;;4976640;28;94821;-36
2023/06/04 01:38:27;;;;;;;5.82;4.47;;;9.80;99.90;;;;;;4975661;28;94587;-33
2023/06/04 01:40:58;;;;;;;6.30;4.68;;;9.80;99.90;;;;;;4974814;28;95600;-37
2023/06/04 01:43:24;;;;;;;6.85;5.50;;;9.80;99.90;;;;;;4978811;28;95256;-36
2023/06/04 01:45:50;;;;;;;6.35;4.20;;;9.80;99.90;;;;;;4980719;28;93181;-39
2023/06/04 01:48:15;;;;;;;9.30;5.18;;;9.70;99.90;;;;;;4978882;28;94208;-36
2023/06/04 01:50:41;;;;;;;9.98;4.60;;;9.80;99.90;;;;;;4979650;28;94333;-39
2023/06/04 01:53:06;;;;;;;9.63;4.80;;;9.80;99.90;;;;;;4979369;28;94373;-37
2023/06/04 01:55:33;;;;;;;9.88;4.20;;;9.80;99.90;;;;;;4979611;28;94793;-38
2023/06/04 01:57:59;;;;;;;7.90;4.78;;;9.70;99.90;;;;;;4979497;28;91712;-34
2023/06/04 02:00:25;;;;;;;10.38;4.82;;;9.70;99.90;;;;;;4978719;28;94618;-35
2023/06/04 02:02:51;;;;;;;9.27;4.82;;;9.70;99.90;;;;;;4978953;28;94428;-36
2023/06/04 02:05:17;;;;;;;11.07;5.70;;;9.70;99.90;;;;;;4979621;28;93977;-36
2023/06/04 02:07:44;;;;;;;13.60;4.78;;;9.70;99.90;;;;;;4978788;28;94490;-35
2023/06/04 02:10:15;;;;;;;5.30;4.40;;;9.70;99.90;;;;;;4978808;28;94152;-37
2023/06/04 02:12:52;;;;;;;12.23;5.93;;;9.60;99.90;;;;;;4978522;28;94770;-33
2023/06/04 02:15:18;;;;;;;15.43;5.70;;;9.60;99.90;;;;;;4979780;28;92294;-32
2023/06/04 02:17:45;;;;;;;10.38;5.38;;;9.50;99.90;;;;;;4979442;28;94449;-34
2023/06/04 02:20:11;;;;;;;9.98;6.18;;;9.50;99.90;;;;;;4978658;28;95003;-36
2023/06/04 02:22:37;;;;;;;11.00;5.28;;;9.50;99.90;;;;;;4978770;28;94327;-39
2023/06/04 02:25:04;;;;;;;15.15;5.78;;;9.50;99.90;;;;;;4979634;28;94135;-34
2023/06/04 02:27:30;;;;;;;7.43;5.40;;;9.40;99.90;;;;;;4960620;28;92237;-39
2023/06/04 02:29:55;;;;;;;7.72;5.70;;;9.50;99.90;;;;;;4978414;28;95638;-34
2023/06/04 02:32:21;;;;;;;13.85;5.78;;;9.40;99.90;;;;;;4978203;28;95572;-36
2023/06/04 02:34:46;;;;;;;7.20;5.55;;;9.40;99.90;;;;;;4979062;28;93325;-34
2023/06/04 02:37:12;;;;;;;8.27;5.30;;;9.40;99.90;;;;;;4979064;28;92570;-35
2023/06/04 02:39:38;;;;;;;8.70;7.78;;;9.40;99.90;;;;;;4978669;28;95457;-31
2023/06/04 02:42:03;;;;;;;7.18;6.20;;;9.40;99.90;;;;;;4979070;28;94807;-35
2023/06/04 02:44:30;;;;;;;8.65;5.18;;;9.30;99.90;;;;;;4977834;28;92271;-35
2023/06/04 02:46:56;;;;;;;8.25;5.63;;;9.40;99.90;;;;;;4978832;28;92840;-36
2023/06/04 02:49:22;;;;;;;10.70;5.22;;;9.40;99.90;;;;;;4978640;28;94706;-32
2023/06/04 02:51:47;;;;;;;9.95;5.38;;;9.40;99.90;;;;;;4979061;28;94316;-33
2023/06/04 02:54:13;;;;;;;11.43;6.50;;;9.30;99.90;;;;;;4977497;28;94763;-34
2023/06/04 02:56:40;;;;;;;9.80;5.90;;;9.40;99.90;;;;;;4978291;28;94256;-36
2023/06/04 02:59:09;;;;;;;7.22;5.63;;;9.30;99.90;;;;;;4977935;28;94763;-39
2023/06/04 03:01:35;;;;;;;9.23;4.95;;;9.30;99.90;;;;;;4979116;28;94596;-36
2023/06/04 03:04:03;;;;;;;10.00;6.88;;;9.30;99.90;;;;;;4978958;28;92820;-33
2023/06/04 03:06:29;;;;;;;8.63;5.80;;;9.30;99.90;;;;;;4977999;28;93775;-36
2023/06/04 03:08:55;;;;;;;8.38;6.03;;;9.20;99.90;;;;;;4977974;28;94836;-38
2023/06/04 03:11:21;;;;;;;10.70;5.82;;;9.30;99.90;;;;;;4978259;28;94275;-38
2023/06/04 03:13:48;;;;;;;12.55;8.40;;;9.30;99.90;;;;;;4977990;28;92619;-36
2023/06/04 03:16:14;;;;;;;8.65;6.70;;;9.30;99.90;;;;;;4977806;28;92289;-35
2023/06/04 03:18:40;;;;;;;7.35;5.72;;;9.30;99.90;;;;;;4959429;28;96163;-33
2023/06/04 03:21:06;;;;;;;8.38;5.07;;;9.30;99.90;;;;;;4959950;28;95543;-34
2023/06/04 03:23:32;;;;;;;9.68;6.55;;;9.30;99.90;;;;;;4959483;28;93568;-35
2023/06/04 03:25:58;;;;;;;7.80;6.80;;;9.30;99.90;;;;;;4977963;28;94021;-35
2023/06/04 03:28:24;;;;;;;8.90;6.00;;;9.30;99.90;;;;;;4977270;28;94757;-39
2023/06/04 03:30:50;;;;;;;10.45;5.95;;;9.40;99.90;;;;;;4977984;28;95009;-32
2023/06/04 03:33:15;;;;;;;11.30;5.88;;;9.40;99.90;;;;;;4959816;28;94285;-37
2023/06/04 03:35:41;;;;;;;8.85;6.00;;;9.30;99.90;;;;;;4977834;28;91399;-35
2023/06/04 03:38:07;;;;;;;11.07;6.05;;;9.30;99.90;;;;;;4977514;28;95787;-33
2023/06/04 03:40:32;;;;;;;10.70;5.47;;;9.30;99.90;;;;;;4977657;28;94034;-33
2023/06/04 03:42:58;;;;;;;16.60;7.82;;;9.30;99.90;;;;;;4977771;28;94350;-34
2023/06/04 03:45:24;;;;;;;17.88;5.85;;;9.30;99.90;;;;;;4976973;28;93148;-35
2023/06/04 03:47:49;;;;;;;9.20;6.15;;;9.30;99.90;;;;;;4977693;28;94638;-35
2023/06/04 03:50:15;;;;;;;10.48;6.03;;;9.30;99.90;;;;;;4976976;28;95417;-36
2023/06/04 03:52:40;;;;;;;9.35;6.80;;;9.30;99.90;;;;;;4979097;28;93158;-34
2023/06/04 03:55:07;;;;;;;11.88;6.22;;;9.40;99.90;;;;;;4977519;28;93670;-37
2023/06/04 03:57:32;;;;;;;12.27;5.45;;;9.40;99.90;;;;;;4976629;28;94733;-38
2023/06/04 03:59:58;;;;;;;14.13;6.38;;;9.40;99.90;;;;;;4977544;28;93638;-32
2023/06/04 04:02:23;;;;;;;11.13;7.22;;;9.40;99.90;;;;;;4977756;28;93349;-34
2023/06/04 04:04:50;;;;;;;9.57;6.35;;;9.50;99.90;;;;;;4976890;28;93498;-38
2023/06/04 04:07:16;;;;;;;11.40;6.40;;;9.50;99.90;;;;;;4976792;28;94655;-33
2023/06/04 04:09:41;;;;;;;9.93;7.10;;;9.50;99.90;;;;;;4976841;28;95492;-38
2023/06/04 04:12:07;;;;;;;18.55;6.32;;;9.50;99.90;;;;;;4977616;28;93162;-33
2023/06/04 04:14:32;;;;;;;13.02;7.05;;;9.50;99.90;;;;;;4958621;28;94513;-31
2023/06/04 04:16:58;;;;;;;6.82;6.05;;;9.50;99.90;;;;;;4977434;28;94973;-33
2023/06/04 04:19:25;;;;;;;11.15;6.30;;;9.50;99.90;;;;;;4976819;28;94466;-32
2023/06/04 04:21:51;;;;;;;11.05;5.68;;;9.60;99.90;;;;;;4977205;28;92386;-32
2023/06/04 04:24:27;;;;;;;12.80;7.70;;;9.60;99.90;;;;;;5011469;22;93189;-33
2023/06/04 04:26:53;;;;;;;7.68;6.00;;;9.70;99.90;;;;;;4976762;28;93743;-31
2023/06/04 04:29:24;;;;;;;9.73;5.55;;;9.70;99.90;;;;;;4976514;28;94714;-37
2023/06/04 04:31:56;;;;;;;11.45;5.68;;;9.80;99.90;;;;;;4976520;28;95625;-34
2023/06/04 04:34:23;;;;;;;11.15;6.38;;;9.80;99.90;;;;;;4976064;28;95245;-35
2023/06/04 04:36:52;;;;;;;8.40;5.38;;;10.00;99.90;;;;;;4976726;28;93220;-35
2023/06/04 04:39:27;;;;;;;10.32;5.90;;;10.10;99.90;;;;;;4976533;28;95243;-39
2023/06/04 04:41:55;;;;;;;8.30;6.35;;;10.20;99.90;;;;;;4977576;28;92288;-34
2023/06/04 04:44:20;;;;;;;14.80;5.90;;;10.30;99.90;;;;;;4975912;28;92186;-35
2023/06/04 04:46:48;;;;;;;14.63;6.18;;;10.40;99.90;;;;;;4976725;28;94990;-35
2023/06/04 04:49:14;;;;;;;8.65;6.40;;;10.60;99.90;;;;;;4976916;28;94707;-33
2023/06/04 04:51:40;;;;;;;18.88;6.88;;;10.70;99.90;;;;;;4977007;28;94648;-33
2023/06/04 04:54:05;;;;;;;11.35;6.30;;;10.90;99.90;;;;;;4976721;28;93311;-38
2023/06/04 04:56:34;;;;;;;13.20;8.07;;;11.00;99.90;;;;;;4975587;28;95839;-35
2023/06/04 04:58:59;;;;;;;9.63;5.55;;;11.10;99.90;;;;;;4976125;28;96483;-34
2023/06/04 05:01:25;;;;;;;11.55;7.30;;;11.20;99.90;;;;;;4976662;28;94882;-36
2023/06/04 05:03:51;;;;;;;9.45;6.68;;;11.20;99.90;;;;;;4976704;28;92662;-33
2023/06/04 05:06:16;;;;;;;12.88;6.30;;;11.40;99.90;;;;;;4976098;28;93573;-34
2023/06/04 05:08:42;;;;;;;10.15;6.85;;;11.50;99.90;;;;;;4977017;28;94840;-34
2023/06/04 05:11:08;;;;;;;13.38;7.50;;;11.70;99.90;;;;;;4976307;28;94352;-35
2023/06/04 05:13:34;;;;;;;12.20;7.97;;;11.70;99.90;;;;;;4976910;28;91858;-37
2023/06/04 05:16:06;;;;;;;12.27;7.35;;;11.90;99.90;;;;;;4977607;28;96173;-34
2023/06/04 05:18:33;;;;;;;11.05;7.88;;;12.00;99.90;;;;;;4980208;28;94274;-33
2023/06/04 05:21:02;;;;;;;12.63;7.80;;;12.10;99.90;;;;;;4979918;28;95136;-34
2023/06/04 05:23:29;;;;;;;8.82;7.50;;;12.20;99.90;;;;;;4979755;28;93191;-34
2023/06/04 05:25:55;;;;;;;12.77;8.77;;;12.40;99.90;;;;;;4979300;28;94563;-31
2023/06/04 05:28:24;;;;;;;13.50;7.32;;;12.50;99.90;;;;;;4961434;28;94486;-39
2023/06/04 05:30:51;;;;;;;19.63;9.52;;;12.70;99.90;;;;;;4962740;28;93027;-35
2023/06/04 05:33:18;;;;;;;10.02;6.63;;;12.80;99.90;;;;;;4942368;28;93387;-37
2023/06/04 05:35:48;;;;;;;17.90;9.60;;;12.90;99.90;;;;;;4959011;28;93173;-34
2023/06/04 05:38:18;;;;;;;10.15;7.82;;;13.10;99.90;;;;;;4959319;28;94865;-34
2023/06/04 05:40:45;;;;;;;10.27;7.22;;;13.10;99.90;;;;;;4960326;28;93498;-33
2023/06/04 05:43:11;;;;;;;13.60;7.53;;;13.30;99.90;;;;;;4959851;28;94478;-38
2023/06/04 05:45:37;;;;;;;10.52;8.90;;;13.40;99.90;;;;;;4958859;28;96548;-33
2023/06/04 05:48:03;;;;;;;12.15;8.48;;;13.50;99.90;;;;;;4959240;28;95377;-33
2023/06/04 05:50:30;;;;;;;12.82;8.05;;;13.60;99.90;;;;;;4960157;28;94716;-38
2023/06/04 05:52:56;;;;;;;11.80;8.13;;;13.60;99.90;;;;;;4959716;28;94793;-33
2023/06/04 05:55:22;;;;;;;11.93;8.65;;;13.70;99.90;;;;;;4959005;28;95049;-35
2023/06/04 05:57:48;;;;;;;13.90;8.13;;;13.90;99.90;;;;;;4959844;28;94638;-34
2023/06/04 06:00:15;;;;;;;16.92;6.80;;;14.00;99.90;;;;;;4941758;28;94643;-35
2023/06/04 06:02:40;;;;;;;7.30;5.70;;;14.20;99.90;;;;;;4960204;28;94236;-36
2023/06/04 06:05:08;;;;;;;8.90;7.15;;;14.50;99.90;;;;;;4959942;28;94391;-37
2023/06/04 06:07:34;;;;;;;16.27;8.60;;;14.70;99.90;;;;;;4958594;28;95536;-37
2023/06/04 06:10:00;;;;;;;11.13;7.30;;;14.70;99.90;;;;;;4958989;28;94188;-34
2023/06/04 06:12:26;;;;;;;10.40;7.28;;;14.80;99.90;;;;;;4970278;28;94152;-33
2023/06/04 06:14:51;;;;;;;11.05;7.78;;;15.00;99.90;;;;;;4979218;28;94788;-35
2023/06/04 06:17:17;;;;;;;10.93;5.55;;;14.90;99.90;;;;;;4978772;28;93829;-34
2023/06/04 06:19:42;;;;;;;6.65;5.55;;;15.00;99.90;;;;;;4979243;28;94676;-31
2023/06/04 06:22:08;;;;;;;7.78;5.55;;;15.10;99.90;;;;;;4978880;28;94493;-38
2023/06/04 06:24:34;;;;;;;8.90;3.85;;;15.20;99.90;;;;;;4978837;28;93623;-34
2023/06/04 06:26:59;;;;;;;8.70;5.28;;;15.30;99.90;;;;;;4978571;28;94500;-36
2023/06/04 06:29:25;;;;;;;4.40;3.17;;;15.40;99.90;;;;;;4979233;28;94124;-33
2023/06/04 06:31:51;;;;;;;8.38;4.88;;;15.40;99.90;;;;;;4978412;28;93069;-33
2023/06/04 06:34:16;;;;;;;8.70;5.40;;;15.70;99.90;;;;;;4978294;28;95920;-37
2023/06/04 06:36:42;;;;;;;10.38;5.45;;;15.70;99.90;;;;;;4961190;28;96767;-33
2023/06/04 06:39:08;;;;;;;9.38;3.88;;;15.70;99.90;;;;;;4978996;28;93673;-34
2023/06/04 06:41:34;;;;;;;7.93;4.13;;;15.70;99.90;;;;;;4961115;28;93613;-32
2023/06/04 06:44:00;;;;;;;9.27;4.20;;;15.80;99.90;;;;;;4978060;28;94728;-34
2023/06/04 06:46:26;;;;;;;7.05;3.72;;;15.70;99.90;;;;;;4978268;28;94532;-36
2023/06/04 06:48:51;;;;;;;7.18;3.85;;;15.90;99.90;;;;;;4978956;28;94357;-35
2023/06/04 06:51:17;;;;;;;7.05;4.05;;;16.20;99.90;;;;;;4979159;28;92207;-34
2023/06/04 06:53:43;;;;;;;6.95;3.85;;;16.40;99.90;;;;;;4978441;28;95161;-34
2023/06/04 06:56:09;;;;;;;7.65;4.10;;;16.40;99.90;;;;;;4977475;28;94322;-34
2023/06/04 06:58:34;;;;;;;5.57;5.00;;;16.70;99.90;;;;;;4981619;28;94203;-33
2023/06/04 07:01:02;;;;;;;8.93;3.88;;;16.80;99.90;;;;;;4978130;28;94461;-33
2023/06/04 07:03:28;;;;;;;4.32;3.53;;;16.90;99.90;;;;;;4982839;28;94958;-34
2023/06/04 07:05:53;;;;;;;6.00;3.08;;;17.00;99.90;;;;;;4980125;28;94474;-37
2023/06/04 07:08:19;;;;;;;8.38;3.15;;;17.10;99.90;;;;;;4978096;28;93009;-35
2023/06/04 07:10:45;;;;;;;11.45;3.83;;;17.00;99.90;;;;;;4978631;28;94086;-34
2023/06/04 07:13:11;;;;;;;4.32;3.10;;;17.00;99.90;;;;;;4976915;28;94763;-37
2023/06/04 07:15:36;;;;;;;6.15;3.63;;;17.20;99.90;;;;;;4976887;28;93970;-38
2023/06/04 07:18:02;;;;;;;10.85;4.07;;;17.40;99.90;;;;;;4976933;28;92623;-32
2023/06/04 07:20:27;;;;;;;6.10;2.80;;;17.50;99.90;;;;;;4975515;28;94239;-32
2023/06/04 07:22:53;;;;;;;7.47;3.83;;;17.40;99.90;;;;;;4975730;28;94904;-33
2023/06/04 07:25:20;;;;;;;8.02;3.80;;;17.50;99.90;;;;;;4966174;28;95045;-33
2023/06/04 07:27:47;;;;;;;6.57;2.85;;;17.50;99.90;;;;;;4976954;28;93110;-33
2023/06/04 07:30:13;;;;;;;8.82;3.42;;;17.50;99.90;;;;;;4971376;28;92359;-36
2023/06/04 07:32:39;;;;;;;7.10;3.08;;;17.50;99.90;;;;;;4938571;28;96026;-37
2023/06/04 07:35:05;;;;;;;5.63;3.67;;;17.70;99.90;;;;;;4955576;28;94507;-36
2023/06/04 07:37:31;;;;;;;7.90;3.92;;;17.90;99.90;;;;;;4956838;28;92205;-34
2023/06/04 07:39:56;;;;;;;3.60;3.10;;;17.90;99.90;;;;;;4954955;28;94001;-35
2023/06/04 07:42:22;;;;;;;6.72;2.97;;;18.20;99.90;;;;;;4956267;28;96475;-33
2023/06/04 07:44:47;;;;;;;4.90;2.78;;;18.10;99.90;;;;;;4955785;28;94432;-33
2023/06/04 07:47:13;;;;;;;3.75;3.08;;;18.40;99.90;;;;;;4955680;28;94450;-34
2023/06/04 07:49:39;;;;;;;7.00;4.10;;;18.40;99.90;;;;;;4956537;28;94866;-37
2023/06/04 07:52:04;;;;;;;4.35;3.40;;;18.60;99.90;;;;;;4956535;28;94769;-35
2023/06/04 07:54:31;;;;;;;4.82;3.33;;;18.70;99.90;;;;;;4955410;28;95305;-32
2023/06/04 07:56:57;;;;;;;7.05;2.67;;;18.90;99.90;;;;;;4955525;28;93081;-35
2023/06/04 07:59:23;;;;;;;5.60;3.15;;;18.80;99.90;;;;;;4955392;28;93124;-38
2023/06/04 08:01:55;;;;;;;5.15;2.88;;;18.90;99.90;;;;;;5018033;28;88843;-38
2023/06/04 08:04:21;;;;;;;7.82;3.75;;;19.00;99.90;;;;;;5016194;27;87893;-38
2023/06/04 08:06:47;;;;;;;5.00;3.13;;;18.90;99.90;;;;;;5014674;28;88018;-39
2023/06/04 08:09:13;;;;;;;4.53;2.75;;;19.00;99.90;;;;;;5015450;27;90211;-45
2023/06/04 08:11:42;;;;;;;5.47;2.67;;;19.30;99.90;;;;;;5016050;27;88888;-42
2023/06/04 08:14:07;;;;;;;5.68;2.65;;;19.20;92.50;;;;;;5015712;27;89639;-36
2023/06/04 08:16:33;;;;;;;7.32;3.08;;;19.30;99.90;;;;;;5015684;28;88357;-39
2023/06/04 08:18:58;;;;;;;6.70;3.58;;;19.40;99.90;;;;;;5015979;28;89920;-42
2023/06/04 08:21:28;;;;;;;4.47;2.60;;;19.30;99.90;;;;;;5013505;28;89382;-34
2023/06/04 08:23:54;;;;;;;5.00;1.88;;;19.30;99.90;;;;;;5014913;28;90268;-40
2023/06/04 08:26:20;;;;;;;4.22;2.25;;;19.50;99.30;;;;;;5015711;27;87732;-35
2023/06/04 08:28:48;;;;;;;3.83;2.28;;;19.70;99.90;;;;;;5015032;28;91733;-42
2023/06/04 08:31:14;;;;;;;6.05;2.50;;;19.50;96.70;;;;;;5014906;27;89617;-37
2023/06/04 08:33:41;;;;;;;3.67;2.40;;;19.50;90.70;;;;;;5015364;27;87949;-38
2023/06/04 08:36:07;;;;;;;3.92;2.15;;;19.50;85.90;;;;;;5015008;27;87676;-42
2023/06/04 08:38:32;;;;;;;5.70;2.22;;;19.70;81.40;;;;;;5015561;28;88949;-39
2023/06/04 08:41:08;;;;;;;5.50;2.08;;;19.90;76.70;;;;;;5015363;28;89660;-39
2023/06/04 08:43:35;;;;;;;5.25;2.53;;;19.90;79.60;;;;;;5015507;28;89350;-36
2023/06/04 08:46:08;;;;;;;7.05;2.95;;;19.80;79.10;;;;;;5016091;27;88976;-42
2023/06/04 08:48:35;;;;;;;3.20;2.40;;;20.20;73.60;;;;;;5015200;27;90342;-42
2023/06/04 08:51:02;;;;;;;2.33;2.03;;;20.30;74.50;;;;;;5015180;28;89172;-40
2023/06/04 08:53:31;;;;;;;6.23;2.40;;;20.30;72.80;;;;;;5015112;27;88963;-39
2023/06/04 08:55:57;;;;;;;6.05;2.40;;;20.50;72.10;;;;;;5014969;27;88924;-36
2023/06/04 08:58:23;;;;;;;6.68;2.53;;;20.60;72.30;;;;;;5015203;27;90225;-37
2023/06/04 09:00:49;;;;;;;3.60;2.42;;;20.60;72.10;;;;;;5013623;28;91490;-41
2023/06/04 09:03:15;;;;;;;5.72;2.50;;;20.50;69.20;;;;;;5013609;28;88484;-42
2023/06/04 09:05:47;;;;;;;5.72;2.33;;;20.80;70.70;;;;;;5015184;27;87726;-42
2023/06/04 09:08:16;;;;;;;4.22;2.08;;;20.70;69.00;;;;;;5014269;27;89820;-44
2023/06/04 09:10:46;;;;;;;4.35;1.90;;;20.80;66.00;;;;;;5015294;27;89627;-37
2023/06/04 09:13:13;;;;;;;1.92;1.73;;;20.70;67.40;;;;;;5002116;27;89779;-38
2023/06/04 09:15:38;;;;;;;3.88;2.08;;;20.90;67.40;;;;;;5001910;28;89295;-37
2023/06/04 09:18:04;;;;;;;3.95;2.85;;;20.90;68.10;;;;;;5001677;28;90218;-40
2023/06/04 09:20:32;;;;;;;5.82;2.72;;;20.80;65.80;;;;;;5000746;28;89254;-38
2023/06/04 09:22:58;;;;;;;5.68;1.48;;;21.10;66.00;;;;;;5001560;28;88079;-43
2023/06/04 09:25:25;;;;;;;2.90;2.08;;;21.10;66.60;;;;;;5000649;28;88172;-41
2023/06/04 09:27:51;;;;;;;3.20;2.07;;;21.10;63.30;;;;;;5000803;28;90118;-37
2023/06/04 09:30:17;;;;;;;4.10;1.65;;;21.10;63.10;;;;;;5000331;28;90336;-41
2023/06/04 09:32:43;;;;;;;3.47;1.80;;;21.20;63.40;;;;;;5000827;28;88365;-36
2023/06/04 09:35:13;;;;;;;4.45;2.38;;;20.90;62.70;;;;;;5001910;28;89380;-43
2023/06/04 09:37:50;;;;;;;10.80;2.53;;;20.90;64.30;;;;;;5001964;28;89806;-37
2023/06/04 09:40:16;;;;;;;2.95;1.80;;;20.70;65.60;;;;;;4999580;28;89340;-37
2023/06/04 09:42:54;;;;;;;4.32;2.08;;;20.90;65.70;;;;;;5000491;28;88788;-38
2023/06/04 09:45:31;;;;;;;3.38;1.50;;;20.80;65.20;;;;;;5001439;28;88966;-39
2023/06/04 09:47:57;;;;;;;3.75;2.50;;;20.90;66.40;;;;;;5001290;28;89230;-37
2023/06/04 09:50:27;;;;;;;4.78;2.00;;;20.80;66.00;;;;;;5000285;28;89617;-40
2023/06/04 09:52:53;;;;;;;3.42;2.50;;;20.80;66.40;;;;;;5000533;28;89661;-39
2023/06/04 09:55:20;;;;;;;4.95;2.03;;;21.00;64.70;;;;;;5001143;28;88414;-42
2023/06/04 09:57:53;;;;;;;7.72;2.60;;;21.00;66.00;;;;;;4998936;28;89394;-41
2023/06/04 10:00:23;;;;;;;2.40;2.13;;;21.00;65.50;;;;;;4999871;28;89266;-36
2023/06/04 10:02:55;;;;;;;5.22;2.25;;;21.00;64.50;;;;;;5000624;28;88113;-41
2023/06/04 10:05:22;;;;;;;3.88;2.15;;;21.00;66.00;;;;;;5001403;28;88332;-40
2023/06/04 10:07:51;;;;;;;6.43;2.28;;;20.80;67.10;;;;;;5000692;28;91498;-40
2023/06/04 10:10:20;;;;;;;3.28;1.77;;;21.00;69.50;;;;;;4999731;28;89305;-44
2023/06/04 10:12:54;;;;;;;7.78;2.50;;;20.80;66.20;;;;;;4998548;28;87598;-41
2023/06/04 10:15:21;;;;;;;3.58;2.20;;;20.90;67.50;;;;;;5001271;28;89155;-36
2023/06/04 10:17:48;;;;;;;3.88;1.67;;;20.90;67.20;;;;;;5000588;28;89038;-37
2023/06/04 10:20:14;;;;;;;3.03;2.25;;;20.90;66.90;;;;;;4999848;28;90245;-38
2023/06/04 10:22:41;;;;;;;4.18;2.20;;;20.90;66.00;;;;;;5000460;28;89073;-38
2023/06/04 10:25:10;;;;;;;3.17;2.10;;;21.00;67.00;;;;;;4999242;28;87601;-39
2023/06/04 10:27:36;;;;;;;2.53;2.33;;;21.30;66.30;;;;;;5000376;28;90196;-35
2023/06/04 10:30:04;;;;;;;8.05;2.30;;;21.30;65.70;;;;;;5000465;28;89438;-42
2023/06/04 10:32:30;;;;;;;4.28;2.20;;;21.10;63.90;;;;;;5000052;28;90029;-40
2023/06/04 10:34:57;;;;;;;7.95;2.65;;;21.30;66.00;;;;;;5000862;28;89233;-42
2023/06/04 10:37:26;;;;;;;2.53;2.10;;;21.30;64.90;;;;;;4999751;28;90355;-41
2023/06/04 10:39:53;;;;;;;3.45;2.00;;;21.10;62.10;;;;;;4999867;28;89201;-38
2023/06/04 10:42:21;;;;;;;3.33;1.80;;;21.00;63.30;;;;;;5000248;28;88149;-37
2023/06/04 10:44:48;;;;;;;2.57;2.33;;;21.10;65.50;;;;;;5000348;28;90373;-41
2023/06/04 10:47:22;;;;;;;4.97;2.13;;;21.00;64.90;;;;;;4999863;28;89298;-39
2023/06/04 10:49:50;;;;;;;3.97;1.92;;;21.00;64.50;;;;;;4999658;28;89935;-39
2023/06/04 10:52:16;;;;;;;5.43;2.15;;;21.00;62.70;;;;;;4999991;28;89650;-41
2023/06/04 10:54:46;;;;;;;7.57;3.20;;;21.10;63.00;;;;;;4998263;28;87709;-35
2023/06/04 10:57:12;;;;;;;1.65;1.55;;;21.20;63.40;;;;;;4999462;28;88255;-33
2023/06/04 10:59:38;;;;;;;6.82;2.05;;;21.10;61.40;;;;;;4999801;28;89548;-39
2023/06/04 11:02:10;;;;;;;3.30;2.42;;;21.00;62.90;;;;;;4999996;28;88760;-39
2023/06/04 11:04:38;;;;;;;4.45;2.30;;;21.20;63.60;;;;;;4999661;28;89812;-37
2023/06/04 11:07:08;;;;;;;3.28;2.60;;;21.20;62.40;;;;;;4999281;28;91016;-36
2023/06/04 11:09:35;;;;;;;2.00;1.80;;;21.10;63.40;;;;;;4999326;28;89852;-40
2023/06/04 11:12:03;;;;;;;3.00;2.08;;;21.10;64.20;;;;;;4999376;28;89036;-40
2023/06/04 11:14:29;;;;;;;;;;;21.00;64.80;;;;;;4998902;28;89314;-42
2023/06/04 11:16:55;;;;;;;2.80;2.55;;;20.90;61.40;;;;;;4999571;28;90293;-40
2023/06/04 11:19:21;;;;;;;2.53;1.95;;;20.90;63.00;;;;;;4999250;28;89660;-44
2023/06/04 11:21:47;;;;;;;4.40;1.80;;;20.90;63.00;;;;;;4999439;28;87602;-38
2023/06/04 11:24:13;;;;;;;3.92;2.00;;;21.00;62.90;;;;;;4999862;28;89629;-39
2023/06/04 11:26:39;;;;;;;4.65;1.60;;;21.10;64.40;;;;;;4999294;28;89021;-39
2023/06/04 11:29:11;;;;;;;2.83;2.40;;;21.10;64.90;;;;;;4998963;28;89462;-41
2023/06/04 11:31:44;;;;;;;5.25;1.75;;;20.80;64.40;;;;;;4999242;28;89780;-37
2023/06/04 11:34:11;;;;;;;3.88;2.03;;;20.80;63.50;;;;;;4998974;28;88514;-36
2023/06/04 11:36:37;;;;;;;4.27;1.90;;;20.80;64.10;;;;;;4998642;28;89155;-41
2023/06/04 11:39:06;;;;;;;3.25;1.92;;;20.90;61.50;;;;;;4999705;28;89910;-40
2023/06/04 11:41:33;;;;;;;5.60;2.13;;;20.80;62.80;;;;;;4999242;28;88691;-40
2023/06/04 11:44:03;;;;;;;3.63;2.07;;;20.90;61.90;;;;;;4999255;28;87950;-42
2023/06/04 11:46:29;;;;;;;3.33;2.03;;;20.90;62.50;;;;;;4998399;28;91532;-40
2023/06/04 11:48:55;;;;;;;7.28;2.33;;;20.80;61.90;;;;;;4999233;28;89410;-42
2023/06/04 11:51:21;;;;;;;1.98;1.70;;;20.60;60.90;;;;;;4998670;28;87569;-40
2023/06/04 11:53:47;;;;;;;7.47;2.03;;;20.60;61.90;;;;;;4999179;28;88640;-41
2023/06/04 11:56:14;;;;;;;6.55;2.58;;;20.70;61.20;;;;;;4998566;28;89985;-39
2023/06/04 11:58:40;;;;;;;2.22;1.70;;;20.90;60.70;;;;;;4998530;28;89711;-44
2023/06/04 12:01:08;;;;;;;2.72;1.48;;;20.90;60.20;;;;;;4998346;28;89934;-46
2023/06/04 12:03:38;;;;;;;2.75;1.60;;;20.70;60.90;;;;;;4998999;28;89288;-39
2023/06/04 12:06:13;;;;;;;3.88;2.05;;;20.80;62.70;;;;;;4998542;28;91611;-42
2023/06/04 12:08:46;;;;;;;2.70;1.42;;;20.80;58.80;;;;;;4997911;28;89564;-36
2023/06/04 12:11:41;;;;;;;4.60;1.35;;;20.50;60.90;;;;;;4997831;28;88465;-43
2023/06/04 12:14:07;;;;;;;3.13;1.63;;;20.80;61.80;;;;;;4998715;28;88347;-37
2023/06/04 12:16:33;;;;;;;3.05;2.10;;;21.00;61.80;;;;;;4997992;28;90399;-41
2023/06/04 12:19:12;;;;;;;1.95;1.85;;;20.80;59.60;;;;;;4997762;28;90095;-38
2023/06/04 12:21:41;;;;;;;1.80;1.40;;;20.80;59.50;;;;;;4998117;28;88249;-45
2023/06/04 12:24:07;;;;;;;4.05;1.75;;;20.80;60.10;;;;;;4998303;28;87725;-37
2023/06/04 12:26:37;;;;;;;2.08;1.88;;;20.90;61.00;;;;;;4998370;28;88936;-44
2023/06/04 12:29:11;;;;;;;2.45;1.38;;;20.90;59.70;;;;;;4997901;28;90272;-37
2023/06/04 12:31:38;;;;;;;5.80;2.15;;;20.80;59.10;;;;;;4998437;28;89606;-41
2023/06/04 12:34:04;;;;;;;5.20;2.00;;;20.80;59.20;;;;;;4998276;28;88834;-42
2023/06/04 12:36:29;;;;;;;2.05;1.45;;;20.90;61.00;;;;;;4997150;28;90307;-46
2023/06/04 12:38:59;;;;;;;2.60;1.70;;;21.00;60.80;;;;;;4997761;28;89695;-40
2023/06/04 12:41:25;;;;;;;3.47;1.88;;;21.10;60.00;;;;;;4996436;28;88792;-41
2023/06/04 12:43:51;;;;;;;3.35;1.52;;;21.10;59.30;;;;;;4997658;28;88512;-37
2023/06/04 12:46:17;;;;;;;1.92;1.52;;;21.30;60.00;;;;;;4997182;28;90510;-39
2023/06/04 12:48:43;;;;;;;1.95;1.75;;;21.00;58.30;;;;;;4997440;28;89775;-44